createdAt,value
2022-10-19T00:02:08.608Z,12.10
2022-10-19T00:04:35.350Z,12.10
2022-10-19T00:07:01.967Z,12.00
2022-10-19T00:09:29.215Z,12.00
2022-10-19T00:11:55.813Z,12.00
2022-10-19T00:14:23.555Z,11.90
2022-10-19T00:16:51.088Z,11.80
2022-10-19T00:19:25.540Z,11.80
2022-10-19T00:21:52.543Z,11.80
2022-10-19T00:24:19.400Z,11.80
2022-10-19T00:26:45.952Z,11.70
2022-10-19T00:29:13.778Z,11.70
2022-10-19T00:31:40.698Z,11.70
2022-10-19T00:34:07.329Z,11.70
2022-10-19T00:36:35.467Z,11.60
2022-10-19T00:39:03.277Z,11.60
2022-10-19T00:41:31.633Z,11.50
2022-10-19T00:44:01.216Z,11.50
2022-10-19T00:46:29.249Z,11.50
2022-10-19T00:49:01.102Z,11.50
2022-10-19T00:51:28.857Z,11.40
2022-10-19T00:53:56.154Z,11.40
2022-10-19T00:56:23.031Z,11.40
2022-10-19T00:58:49.733Z,11.30
2022-10-19T01:01:17.298Z,11.30
2022-10-19T01:03:44.638Z,11.30
2022-10-19T01:06:13.538Z,11.20
2022-10-19T01:08:40.338Z,11.20
2022-10-19T01:11:06.956Z,11.10
2022-10-19T01:13:33.530Z,11.10
2022-10-19T01:16:12.569Z,11.10
2022-10-19T01:18:40.229Z,11.10
2022-10-19T01:21:14.550Z,11.10
2022-10-19T01:23:41.156Z,11.00
2022-10-19T01:26:10.438Z,11.00
2022-10-19T01:28:36.978Z,11.00
2022-10-19T01:31:22.359Z,11.00
2022-10-19T01:34:04.850Z,10.90
2022-10-19T01:36:34.407Z,10.90
2022-10-19T01:39:05.548Z,10.90
2022-10-19T01:41:38.026Z,10.80
2022-10-19T01:44:36.822Z,10.80
2022-10-19T01:47:05.982Z,10.70
2022-10-19T01:49:35.102Z,10.70
2022-10-19T01:52:04.659Z,10.60
2022-10-19T01:54:34.098Z,10.60
2022-10-19T01:57:01.718Z,10.60
2022-10-19T01:59:28.737Z,10.50
2022-10-19T02:01:55.868Z,10.50
2022-10-19T02:04:23.655Z,10.40
2022-10-19T02:06:51.808Z,10.40
2022-10-19T02:09:18.511Z,10.40
2022-10-19T02:11:49.631Z,10.30
2022-10-19T02:14:19.511Z,10.30
2022-10-19T02:16:52.021Z,10.30
2022-10-19T02:19:20.576Z,10.30
2022-10-19T02:21:47.175Z,10.20
2022-10-19T02:24:13.751Z,10.20
2022-10-19T02:26:40.635Z,10.20
2022-10-19T02:29:07.900Z,10.20
2022-10-19T02:31:34.523Z,10.20
2022-10-19T02:34:01.288Z,10.20
2022-10-19T02:36:28.036Z,10.20
2022-10-19T02:38:54.722Z,10.10
2022-10-19T02:41:27.451Z,10.10
2022-10-19T02:44:01.017Z,10.10
2022-10-19T02:49:08.103Z,10.00
2022-10-19T02:51:36.216Z,10.00
2022-10-19T02:54:05.224Z,9.90
2022-10-19T02:56:32.582Z,9.90
2022-10-19T02:58:59.150Z,9.90
2022-10-19T03:01:25.747Z,9.90
2022-10-19T03:03:52.323Z,9.80
2022-10-19T03:06:18.987Z,9.80
2022-10-19T03:08:45.662Z,9.80
2022-10-19T03:11:12.226Z,9.80
2022-10-19T03:13:38.866Z,9.80
2022-10-19T03:16:06.702Z,9.80
2022-10-19T03:18:33.308Z,9.80
2022-10-19T03:21:04.271Z,9.70
2022-10-19T03:23:30.918Z,9.70
2022-10-19T03:25:57.565Z,9.70
2022-10-19T03:28:24.192Z,9.70
2022-10-19T03:30:50.806Z,9.70
2022-10-19T03:33:17.412Z,9.70
2022-10-19T03:35:44.146Z,9.70
2022-10-19T03:38:11.328Z,9.60
2022-10-19T03:40:38.123Z,9.60
2022-10-19T03:43:04.702Z,9.50
2022-10-19T03:45:31.315Z,9.50
2022-10-19T03:47:57.890Z,9.60
2022-10-19T03:50:24.594Z,9.50
2022-10-19T03:52:51.236Z,9.50
2022-10-19T03:55:17.880Z,9.60
2022-10-19T03:57:44.448Z,9.50
2022-10-19T04:00:11.411Z,9.60
2022-10-19T04:02:40.693Z,9.50
2022-10-19T04:05:07.507Z,9.50
2022-10-19T04:07:34.303Z,9.50
2022-10-19T04:10:01.066Z,9.50
2022-10-19T04:12:27.627Z,9.50
2022-10-19T04:14:57.184Z,9.50
2022-10-19T04:17:25.103Z,9.40
2022-10-19T04:19:51.679Z,9.50
2022-10-19T04:22:18.285Z,9.40
2022-10-19T04:24:44.902Z,9.40
2022-10-19T04:27:11.519Z,9.40
2022-10-19T04:29:38.158Z,9.40
2022-10-19T04:32:04.816Z,9.40
2022-10-19T04:34:32.570Z,9.40
2022-10-19T04:37:01.267Z,9.40
2022-10-19T04:39:27.883Z,9.30
2022-10-19T04:41:54.468Z,9.30
2022-10-19T04:44:21.198Z,9.30
2022-10-19T04:46:47.793Z,9.30
2022-10-19T04:49:16.530Z,9.30
2022-10-19T04:51:46.158Z,9.30
2022-10-19T04:54:12.772Z,9.30
2022-10-19T04:56:39.768Z,9.20
2022-10-19T04:59:06.356Z,9.20
2022-10-19T05:01:33.020Z,9.20
2022-10-19T05:04:00.816Z,9.20
2022-10-19T05:06:27.862Z,9.20
2022-10-19T05:08:54.481Z,9.20
2022-10-19T05:11:21.230Z,9.10
2022-10-19T05:13:47.849Z,9.20
2022-10-19T05:16:15.756Z,9.10
2022-10-19T05:18:42.665Z,9.10
2022-10-19T05:21:10.811Z,9.10
2022-10-19T05:23:37.789Z,9.10
2022-10-19T05:26:08.659Z,9.00
2022-10-19T05:28:35.626Z,9.00
2022-10-19T05:31:09.369Z,9.00
2022-10-19T05:33:36.451Z,9.00
2022-10-19T05:36:13.127Z,9.00
2022-10-19T05:38:39.725Z,9.00
2022-10-19T05:41:06.461Z,9.00
2022-10-19T05:43:33.045Z,8.90
2022-10-19T05:46:06.465Z,9.00
2022-10-19T05:48:33.912Z,8.90
2022-10-19T05:51:01.588Z,8.90
2022-10-19T05:53:29.148Z,8.90
2022-10-19T05:55:55.806Z,8.90
2022-10-19T05:58:22.520Z,8.90
2022-10-19T06:00:56.328Z,8.90
2022-10-19T06:03:23.439Z,8.90
2022-10-19T06:05:50.154Z,8.90
2022-10-19T06:08:17.579Z,8.90
2022-10-19T06:10:44.672Z,8.90
2022-10-19T06:13:12.201Z,8.80
2022-10-19T06:15:40.468Z,8.80
2022-10-19T06:18:07.505Z,8.80
2022-10-19T06:20:35.156Z,8.80
2022-10-19T06:23:02.474Z,8.80
2022-10-19T06:25:32.823Z,8.80
2022-10-19T06:27:59.592Z,8.80
2022-10-19T06:30:26.314Z,8.70
2022-10-19T06:32:53.127Z,8.70
2022-10-19T06:35:19.843Z,8.80
2022-10-19T06:37:46.483Z,8.70
2022-10-19T06:40:13.232Z,8.80
2022-10-19T06:42:39.899Z,8.80
2022-10-19T06:45:07.241Z,8.80
2022-10-19T06:47:34.515Z,8.80
2022-10-19T06:50:01.866Z,8.80
2022-10-19T06:52:28.466Z,8.80
2022-10-19T06:54:55.034Z,8.90
2022-10-19T06:57:21.670Z,8.90
2022-10-19T06:59:51.402Z,8.90
2022-10-19T07:02:19.631Z,8.90
2022-10-19T07:04:46.215Z,9.00
2022-10-19T07:07:12.849Z,9.00
2022-10-19T07:09:39.446Z,9.10
2022-10-19T07:12:06.144Z,9.10
2022-10-19T07:14:38.512Z,9.10
2022-10-19T07:17:05.914Z,9.10
2022-10-19T07:19:32.978Z,9.20
2022-10-19T07:21:59.985Z,9.30
2022-10-19T07:24:27.001Z,9.30
2022-10-19T07:26:53.928Z,9.30
2022-10-19T07:29:20.956Z,9.40
2022-10-19T07:31:47.874Z,9.40
2022-10-19T07:34:14.848Z,9.50
2022-10-19T07:36:45.207Z,9.50
2022-10-19T07:39:12.797Z,9.60
2022-10-19T07:41:39.878Z,9.70
2022-10-19T07:44:08.198Z,9.70
2022-10-19T07:46:37.324Z,9.70
2022-10-19T07:49:06.570Z,9.80
2022-10-19T07:51:35.632Z,9.80
2022-10-19T07:54:02.996Z,9.90
2022-10-19T07:56:30.298Z,9.90
2022-10-19T07:58:57.859Z,10.00
2022-10-19T08:01:26.007Z,10.00
2022-10-19T08:06:40.760Z,10.10
2022-10-19T08:09:07.845Z,10.20
2022-10-19T08:11:35.283Z,10.20
2022-10-19T08:14:05.256Z,10.30
2022-10-19T08:16:44.223Z,10.40
2022-10-19T08:19:12.497Z,10.50
2022-10-19T08:21:40.504Z,10.60
2022-10-19T08:24:08.265Z,10.60
2022-10-19T08:26:36.749Z,10.70
2022-10-19T08:29:10.136Z,10.70
2022-10-19T08:31:37.466Z,10.80
2022-10-19T08:34:04.740Z,10.80
2022-10-19T08:36:32.680Z,10.90
2022-10-19T08:38:59.607Z,11.00
2022-10-19T08:41:32.870Z,11.10
2022-10-19T08:44:07.738Z,11.20
2022-10-19T08:46:36.920Z,11.20
2022-10-19T08:49:03.948Z,11.30
2022-10-19T08:51:35.567Z,11.40
2022-10-19T08:54:04.993Z,11.50
2022-10-19T08:56:50.623Z,11.60
2022-10-19T08:59:18.743Z,11.70
2022-10-19T09:02:04.821Z,11.80
2022-10-19T09:04:42.701Z,11.80
2022-10-19T09:07:09.658Z,12.00
2022-10-19T09:09:41.821Z,12.00
2022-10-19T09:12:10.284Z,12.10
2022-10-19T09:15:03.571Z,12.20
2022-10-19T09:17:31.243Z,12.30
2022-10-19T09:20:01.697Z,12.30
2022-10-19T09:22:35.098Z,12.40
2022-10-19T09:25:08.580Z,12.40
2022-10-19T09:27:37.529Z,12.50
2022-10-19T09:30:15.805Z,12.50
2022-10-19T09:32:42.920Z,12.60
2022-10-19T09:35:22.556Z,12.70
2022-10-19T09:37:51.165Z,12.80
2022-10-19T09:40:20.335Z,12.80
2022-10-19T09:42:51.137Z,12.90
2022-10-19T09:45:26.208Z,12.90
2022-10-19T09:47:53.932Z,13.00
2022-10-19T09:50:25.673Z,13.10
2022-10-19T09:52:56.112Z,13.10
2022-10-19T09:55:41.442Z,13.20
2022-10-19T09:58:14.581Z,13.30
2022-10-19T10:00:42.845Z,13.30
2022-10-19T10:03:22.998Z,13.40
2022-10-19T10:05:50.190Z,13.50
2022-10-19T10:08:18.865Z,13.60
2022-10-19T10:10:47.170Z,13.70
2022-10-19T10:13:18.533Z,13.70
2022-10-19T10:15:48.984Z,13.80
2022-10-19T10:18:17.124Z,13.80
2022-10-19T10:21:03.908Z,13.90
2022-10-19T10:23:36.395Z,14.00
2022-10-19T10:26:04.072Z,14.10
2022-10-19T10:28:31.731Z,14.20
2022-10-19T10:31:03.238Z,14.20
2022-10-19T10:33:44.142Z,14.30
2022-10-19T10:36:12.365Z,14.30
2022-10-19T10:38:41.384Z,14.40
2022-10-19T10:41:18.908Z,14.50
2022-10-19T10:44:07.049Z,14.50
2022-10-19T10:46:35.757Z,14.50
2022-10-19T10:49:04.134Z,14.50
2022-10-19T10:51:34.123Z,14.60
2022-10-19T10:54:10.333Z,14.60
2022-10-19T10:56:40.676Z,14.70
2022-10-19T10:59:14.145Z,14.70
2022-10-19T11:01:42.884Z,14.80
2022-10-19T11:04:16.660Z,14.80
2022-10-19T11:07:06.807Z,14.90
2022-10-19T11:09:39.424Z,14.90
2022-10-19T11:12:10.417Z,15.00
2022-10-19T11:14:46.587Z,15.00
2022-10-19T11:17:24.182Z,15.10
2022-10-19T11:19:51.518Z,15.20
2022-10-19T11:22:26.365Z,15.20
2022-10-19T11:25:03.559Z,15.30
2022-10-19T11:27:42.697Z,15.40
2022-10-19T11:30:14.279Z,15.50
2022-10-19T11:32:59.635Z,15.60
2022-10-19T11:35:29.431Z,15.70
2022-10-19T11:38:18.003Z,15.80
2022-10-19T11:41:12.888Z,15.90
2022-10-19T11:43:39.728Z,16.00
2022-10-19T11:46:15.885Z,16.20
2022-10-19T11:48:54.726Z,16.40
2022-10-19T11:51:33.333Z,16.50
2022-10-19T11:54:00.223Z,16.60
2022-10-19T11:56:39.207Z,16.80
2022-10-19T11:59:37.889Z,17.00
2022-10-19T12:02:11.167Z,17.10
2022-10-19T12:04:40.931Z,17.40
2022-10-19T12:07:26.745Z,17.50
2022-10-19T12:10:12.468Z,17.60
2022-10-19T12:12:42.723Z,17.90
2022-10-19T12:15:23.873Z,18.20
2022-10-19T12:17:52.820Z,18.50
2022-10-19T12:20:22.655Z,18.90
2022-10-19T12:22:50.211Z,19.30
2022-10-19T12:25:17.563Z,19.60
2022-10-19T12:27:47.721Z,20.30
2022-10-19T12:30:14.744Z,21.10
2022-10-19T12:32:58.303Z,22.20
2022-10-19T12:35:28.149Z,23.40
2022-10-19T12:38:03.594Z,24.60
2022-10-19T12:40:43.802Z,26.10
2022-10-19T12:43:13.850Z,27.50
2022-10-19T12:45:44.136Z,28.80
2022-10-19T12:48:14.428Z,30.10
2022-10-19T12:50:50.297Z,31.00
2022-10-19T12:53:32.183Z,31.90
2022-10-19T12:56:19.003Z,32.80
2022-10-19T12:58:48.569Z,33.60
2022-10-19T13:01:18.346Z,34.40
2022-10-19T13:03:46.904Z,35.00
2022-10-19T13:06:17.506Z,35.60
2022-10-19T13:08:48.736Z,36.00
2022-10-19T13:11:15.860Z,36.60
2022-10-19T13:13:51.958Z,37.10
2022-10-19T13:16:36.969Z,37.50
2022-10-19T13:19:12.660Z,37.90
2022-10-19T13:21:54.653Z,38.20
2022-10-19T13:24:24.286Z,38.40
2022-10-19T13:27:20.314Z,38.70
2022-10-19T13:29:46.894Z,38.90
2022-10-19T13:32:33.633Z,39.10
2022-10-19T13:35:19.166Z,39.20
2022-10-19T13:37:45.803Z,39.30
2022-10-19T13:40:23.737Z,39.50
2022-10-19T13:42:57.612Z,39.60
2022-10-19T13:45:24.574Z,39.30
2022-10-19T13:47:54.919Z,39.30
2022-10-19T13:50:24.545Z,39.20
2022-10-19T13:52:57.187Z,39.20
2022-10-19T13:55:29.969Z,39.00
2022-10-19T13:58:14.863Z,39.10
2022-10-19T14:00:47.523Z,39.20
2022-10-19T14:03:26.492Z,39.10
2022-10-19T14:06:03.522Z,39.20
2022-10-19T14:08:35.924Z,39.20
2022-10-19T14:11:04.040Z,39.10
2022-10-19T14:13:31.319Z,38.90
2022-10-19T14:16:00.116Z,38.40
2022-10-19T14:18:31.918Z,38.10
2022-10-19T14:20:59.718Z,38.00
2022-10-19T14:23:34.167Z,37.50
2022-10-19T14:26:05.262Z,37.20
2022-10-19T14:28:32.351Z,36.90
2022-10-19T14:31:00.370Z,36.40
2022-10-19T14:33:28.199Z,36.40
2022-10-19T14:35:55.198Z,36.10
2022-10-19T14:38:25.658Z,36.00
2022-10-19T14:40:52.259Z,36.10
2022-10-19T14:43:20.988Z,36.20
2022-10-19T14:46:06.401Z,36.30
2022-10-19T14:48:33.992Z,36.50
2022-10-19T14:51:00.676Z,36.50
2022-10-19T14:53:27.298Z,35.90
2022-10-19T14:55:55.411Z,35.00
2022-10-19T14:58:23.618Z,34.30
2022-10-19T15:00:51.271Z,33.30
2022-10-19T15:03:21.990Z,32.20
2022-10-19T15:05:51.669Z,31.20
2022-10-19T15:08:30.274Z,30.10
2022-10-19T15:10:57.348Z,29.10
2022-10-19T15:13:24.072Z,28.10
2022-10-19T15:15:54.245Z,27.20
2022-10-19T15:18:43.851Z,26.50
2022-10-19T15:21:13.621Z,25.80
2022-10-19T15:23:50.244Z,25.10
2022-10-19T15:26:19.927Z,24.70
2022-10-19T15:28:47.147Z,24.20
2022-10-19T15:31:13.705Z,23.90
2022-10-19T15:33:43.390Z,23.50
2022-10-19T15:36:16.974Z,23.20
2022-10-19T15:38:46.820Z,22.90
2022-10-19T15:41:33.664Z,22.60
2022-10-19T15:44:04.020Z,22.30
2022-10-19T15:46:48.807Z,22.00
2022-10-19T15:49:15.441Z,21.80
2022-10-19T15:51:48.588Z,21.60
2022-10-19T15:54:17.072Z,21.40
2022-10-19T15:56:50.236Z,21.20
2022-10-19T15:59:18.251Z,21.00
2022-10-19T16:01:45.143Z,20.90
2022-10-19T16:04:11.839Z,20.70
2022-10-19T16:06:39.701Z,20.50
2022-10-19T16:09:06.784Z,20.40
2022-10-19T16:11:35.205Z,20.20
2022-10-19T16:14:01.916Z,20.00
2022-10-19T16:16:31.288Z,19.90
2022-10-19T16:18:58.292Z,19.80
2022-10-19T16:21:27.162Z,19.70
2022-10-19T16:23:53.815Z,19.50
2022-10-19T16:26:20.649Z,19.40
2022-10-19T16:28:48.627Z,19.20
2022-10-19T16:31:15.794Z,19.10
2022-10-19T16:33:42.431Z,19.10
2022-10-19T16:36:09.534Z,19.00
2022-10-19T16:38:36.424Z,18.90
2022-10-19T16:41:04.717Z,18.80
2022-10-19T16:43:32.152Z,18.70
2022-10-19T16:45:58.782Z,18.60
2022-10-19T16:48:25.524Z,18.50
2022-10-19T16:51:16.951Z,18.40
2022-10-19T16:53:43.551Z,18.40
2022-10-19T16:56:12.278Z,18.30
2022-10-19T16:58:39.388Z,18.20
2022-10-19T17:01:07.048Z,18.10
2022-10-19T17:03:33.742Z,18.00
2022-10-19T17:06:06.992Z,17.90
2022-10-19T17:09:02.360Z,17.90
2022-10-19T17:11:25.343Z,17.80
2022-10-19T17:13:53.613Z,17.70
2022-10-19T17:16:20.746Z,17.70
2022-10-19T17:18:47.376Z,17.70
2022-10-19T17:21:24.331Z,17.60
2022-10-19T17:23:51.852Z,17.50
2022-10-19T17:26:18.508Z,17.40
2022-10-19T17:28:45.199Z,17.40
2022-10-19T17:31:13.118Z,17.30
2022-10-19T17:33:40.224Z,17.30
2022-10-19T17:36:08.170Z,17.20
2022-10-19T17:38:35.058Z,17.20
2022-10-19T17:41:03.202Z,17.20
2022-10-19T17:43:29.900Z,17.10
2022-10-19T17:46:00.934Z,17.10
2022-10-19T17:48:27.555Z,17.00
2022-10-19T17:51:01.239Z,17.00
2022-10-19T17:53:28.360Z,16.90
2022-10-19T17:55:55.048Z,16.90
2022-10-19T17:58:22.012Z,16.90
2022-10-19T18:00:52.627Z,16.80
2022-10-19T18:03:19.262Z,16.80
2022-10-19T18:05:55.008Z,16.70
2022-10-19T18:08:21.640Z,16.70
2022-10-19T18:10:48.503Z,16.60
2022-10-19T18:13:15.463Z,16.60
2022-10-19T18:15:42.445Z,16.50
2022-10-19T18:18:09.049Z,16.50
2022-10-19T18:20:38.801Z,16.40
2022-10-19T18:23:06.747Z,16.30
2022-10-19T18:25:53.530Z,16.30
2022-10-19T18:28:20.983Z,16.30
2022-10-19T18:30:47.840Z,16.30
2022-10-19T18:33:14.889Z,16.30
2022-10-19T18:35:41.704Z,16.20
2022-10-19T18:38:08.813Z,16.20
2022-10-19T18:40:36.986Z,16.10
2022-10-19T18:43:04.321Z,16.10
2022-10-19T18:45:31.615Z,16.00
2022-10-19T18:47:58.431Z,16.00
2022-10-19T18:50:25.296Z,16.00
2022-10-19T18:52:51.996Z,15.90
2022-10-19T18:55:18.754Z,15.80
2022-10-19T18:57:45.399Z,15.80
2022-10-19T19:00:12.330Z,15.70
2022-10-19T19:02:46.401Z,15.70
2022-10-19T19:05:14.003Z,15.70
2022-10-19T19:07:40.789Z,15.70
2022-10-19T19:10:07.771Z,15.70
2022-10-19T19:12:34.685Z,15.60
2022-10-19T19:15:01.473Z,15.60
2022-10-19T19:17:28.195Z,15.50
2022-10-19T19:19:54.825Z,15.50
2022-10-19T19:22:21.459Z,15.40
2022-10-19T19:24:49.661Z,15.30
2022-10-19T19:27:16.364Z,15.30
2022-10-19T19:29:43.267Z,15.30
2022-10-19T19:32:09.981Z,15.30
2022-10-19T19:34:36.982Z,15.30
2022-10-19T19:37:07.315Z,15.30
2022-10-19T19:39:37.336Z,15.20
2022-10-19T19:42:04.154Z,15.20
2022-10-19T19:44:31.143Z,15.20
2022-10-19T19:46:59.117Z,15.10
2022-10-19T19:49:26.228Z,15.10
2022-10-19T19:51:53.838Z,15.00
2022-10-19T19:54:21.846Z,15.00
2022-10-19T19:56:51.971Z,14.90
2022-10-19T19:59:18.866Z,14.90
2022-10-19T20:01:45.805Z,14.90
2022-10-19T20:04:12.487Z,14.80
2022-10-19T20:06:39.573Z,14.80
2022-10-19T20:09:06.842Z,14.70
2022-10-19T20:11:36.107Z,14.70
2022-10-19T20:14:04.953Z,14.60
2022-10-19T20:16:34.479Z,14.60
2022-10-19T20:19:05.735Z,14.60
2022-10-19T20:21:33.550Z,14.50
2022-10-19T20:24:00.205Z,14.50
2022-10-19T20:26:27.295Z,14.50
2022-10-19T20:28:53.990Z,14.40
2022-10-19T20:31:21.006Z,14.40
2022-10-19T20:33:47.834Z,14.30
2022-10-19T20:36:15.862Z,14.40
2022-10-19T20:39:00.357Z,14.30
2022-10-19T20:41:27.807Z,14.30
2022-10-19T20:43:55.334Z,14.30
2022-10-19T20:46:23.467Z,14.20
2022-10-19T20:48:50.758Z,14.20
2022-10-19T20:51:20.329Z,14.20
2022-10-19T20:53:49.801Z,14.10
2022-10-19T20:56:17.875Z,14.10
2022-10-19T20:58:45.289Z,14.10
2022-10-19T21:01:13.696Z,14.00
2022-10-19T21:03:40.427Z,14.10
2022-10-19T21:06:08.118Z,14.00
2022-10-19T21:08:35.589Z,14.00
2022-10-19T21:11:10.810Z,13.90
2022-10-19T21:13:37.360Z,13.90
2022-10-19T21:16:14.532Z,13.80
2022-10-19T21:18:41.446Z,13.80
2022-10-19T21:21:15.429Z,13.80
2022-10-19T21:23:42.848Z,13.80
2022-10-19T21:26:09.462Z,13.70
2022-10-19T21:28:36.077Z,13.70
2022-10-19T21:31:06.422Z,13.70
2022-10-19T21:33:33.217Z,13.70
2022-10-19T21:36:00.408Z,13.60
2022-10-19T21:38:27.029Z,13.60
2022-10-19T21:41:00.812Z,13.60
2022-10-19T21:43:27.737Z,13.60
2022-10-19T21:45:54.364Z,13.50
2022-10-19T21:48:21.305Z,13.50
2022-10-19T21:50:48.443Z,13.50
2022-10-19T21:53:19.359Z,13.40
2022-10-19T21:55:46.567Z,13.40
2022-10-19T21:58:13.161Z,13.40
2022-10-19T22:00:39.759Z,13.40
2022-10-19T22:03:06.500Z,13.40
2022-10-19T22:05:33.167Z,13.30
2022-10-19T22:07:59.782Z,13.30
2022-10-19T22:10:26.389Z,13.30
2022-10-19T22:12:52.955Z,13.20
2022-10-19T22:15:19.527Z,13.20
2022-10-19T22:17:46.126Z,13.20
2022-10-19T22:20:12.709Z,13.20
2022-10-19T22:22:39.346Z,13.10
2022-10-19T22:25:06.051Z,13.10
2022-10-19T22:27:33.586Z,13.00
2022-10-19T22:30:00.307Z,13.00
2022-10-19T22:32:26.883Z,13.00
2022-10-19T22:34:53.495Z,12.90
2022-10-19T22:37:20.107Z,12.90
2022-10-19T22:39:46.684Z,12.90
2022-10-19T22:42:13.287Z,12.90
2022-10-19T22:44:39.903Z,12.90
2022-10-19T22:47:06.477Z,12.90
2022-10-19T22:49:33.236Z,12.80
2022-10-19T22:51:59.846Z,12.80
2022-10-19T22:54:26.450Z,12.80
2022-10-19T22:56:53.437Z,12.80
2022-10-19T22:59:20.045Z,12.70
2022-10-19T23:01:46.686Z,12.80
2022-10-19T23:04:13.327Z,12.70
2022-10-19T23:06:40.724Z,12.70
2022-10-19T23:09:07.428Z,12.70
2022-10-19T23:11:34.012Z,12.70
2022-10-19T23:14:00.647Z,12.70
2022-10-19T23:18:54.743Z,12.60
2022-10-19T23:21:21.412Z,12.60
2022-10-19T23:23:48.165Z,12.60
2022-10-19T23:26:16.799Z,12.60
2022-10-19T23:28:44.316Z,12.60
2022-10-19T23:31:15.772Z,12.60
2022-10-19T23:33:42.888Z,12.60
2022-10-19T23:36:11.829Z,12.50
2022-10-19T23:38:38.663Z,12.50
2022-10-19T23:41:05.335Z,12.50
2022-10-19T23:43:32.465Z,12.50
2022-10-19T23:45:59.408Z,12.50
2022-10-19T23:48:26.312Z,12.50
2022-10-19T23:50:56.883Z,12.40
2022-10-19T23:53:23.456Z,12.40
2022-10-19T23:55:50.028Z,12.40
2022-10-19T23:58:16.709Z,12.40
